Huron, Kansas
Current Conditions -  °F | °C
As of 8:53 PM on Wednesday 26 Nov 2014 (Local Time) from KSTJ Reporting Station
Overcast Overcast  
Wind Chill: 15°   Ceiling: 1900
Heat Index: 28°   Visibility: 10mi
Dew Point: 21°   Wind: 20mph
Humidity: 75%   Direction: 340°NNW
Pressure: 30.36"   Gusts: 35mph
Location:  39.6039°N, 95.3094°W
Report Text: KSTJ 270253Z AUTO 34017G30KT 10SM OVC019 M02/M06 A3036 RMK AO2 PK WND 35030/0247 SLP289 T10221061 53038
Loading
Personal Weather Stations






























Interactive Weather Map New forecast layout! Learn more

10-Day Weather Forecast

Advertisements
Track Severe Weather on mobile